sensor_id;sensor_type;location;lat;lon;timestamp;temperature;humidity
5280;DHT22;2663;53.588;10.010;2023-11-19T00:01:34;7.20;99.90
5280;DHT22;2663;53.588;10.010;2023-11-19T00:04:01;7.30;99.90
5280;DHT22;2663;53.588;10.010;2023-11-19T00:06:29;7.30;99.90
5280;DHT22;2663;53.588;10.010;2023-11-19T00:08:56;7.20;99.90
5280;DHT22;2663;53.588;10.010;2023-11-19T00:11:22;7.20;99.90
5280;DHT22;2663;53.588;10.010;2023-11-19T00:13:49;7.20;99.90
5280;DHT22;2663;53.588;10.010;2023-11-19T00:16:16;7.30;99.90
5280;DHT22;2663;53.588;10.010;2023-11-19T00:18:43;7.30;99.90
5280;DHT22;2663;53.588;10.010;2023-11-19T00:21:10;7.40;99.90
5280;DHT22;2663;53.588;10.010;2023-11-19T00:23:37;7.30;99.90
5280;DHT22;2663;53.588;10.010;2023-11-19T00:26:04;7.40;99.90
5280;DHT22;2663;53.588;10.010;2023-11-19T00:28:33;7.40;99.90
5280;DHT22;2663;53.588;10.010;2023-11-19T00:31:00;6.60;99.90
5280;DHT22;2663;53.588;10.010;2023-11-19T00:33:27;7.40;99.90
5280;DHT22;2663;53.588;10.010;2023-11-19T00:35:54;7.40;99.90
5280;DHT22;2663;53.588;10.010;2023-11-19T00:38:22;7.40;99.90
5280;DHT22;2663;53.588;10.010;2023-11-19T00:40:48;7.40;99.90
5280;DHT22;2663;53.588;10.010;2023-11-19T00:43:15;7.30;99.90
5280;DHT22;2663;53.588;10.010;2023-11-19T00:45:42;7.40;99.90
5280;DHT22;2663;53.588;10.010;2023-11-19T00:48:09;7.30;99.90
5280;DHT22;2663;53.588;10.010;2023-11-19T00:50:36;7.40;99.90
5280;DHT22;2663;53.588;10.010;2023-11-19T00:53:05;7.40;99.90
5280;DHT22;2663;53.588;10.010;2023-11-19T00:55:32;7.40;99.90
5280;DHT22;2663;53.588;10.010;2023-11-19T00:57:58;7.40;99.90
5280;DHT22;2663;53.588;10.010;2023-11-19T01:00:25;7.30;99.90
5280;DHT22;2663;53.588;10.010;2023-11-19T01:02:53;7.40;99.90
5280;DHT22;2663;53.588;10.010;2023-11-19T01:05:21;7.50;99.90
5280;DHT22;2663;53.588;10.010;2023-11-19T01:07:49;7.50;99.90
5280;DHT22;2663;53.588;10.010;2023-11-19T01:10:16;7.40;99.90
5280;DHT22;2663;53.588;10.010;2023-11-19T01:12:45;6.90;99.90
5280;DHT22;2663;53.588;10.010;2023-11-19T01:15:12;7.30;99.90
5280;DHT22;2663;53.588;10.010;2023-11-19T01:17:40;7.30;99.90
5280;DHT22;2663;53.588;10.010;2023-11-19T01:20:18;7.30;99.90
5280;DHT22;2663;53.588;10.010;2023-11-19T01:22:46;7.30;99.90
5280;DHT22;2663;53.588;10.010;2023-11-19T01:25:15;7.50;99.90
5280;DHT22;2663;53.588;10.010;2023-11-19T01:27:42;7.50;99.90
5280;DHT22;2663;53.588;10.010;2023-11-19T01:30:09;7.50;99.90
5280;DHT22;2663;53.588;10.010;2023-11-19T01:32:40;7.40;99.90
5280;DHT22;2663;53.588;10.010;2023-11-19T01:35:07;7.40;99.90
5280;DHT22;2663;53.588;10.010;2023-11-19T01:37:37;7.40;99.90
5280;DHT22;2663;53.588;10.010;2023-11-19T01:40:04;7.40;99.90
5280;DHT22;2663;53.588;10.010;2023-11-19T01:42:39;8.40;99.90
5280;DHT22;2663;53.588;10.010;2023-11-19T01:45:07;7.40;99.90
5280;DHT22;2663;53.588;10.010;2023-11-19T01:47:35;7.40;99.90
5280;DHT22;2663;53.588;10.010;2023-11-19T01:50:03;7.40;99.90
5280;DHT22;2663;53.588;10.010;2023-11-19T01:52:34;7.40;99.90
5280;DHT22;2663;53.588;10.010;2023-11-19T01:55:07;7.40;99.90
5280;DHT22;2663;53.588;10.010;2023-11-19T01:57:36;7.50;99.90
5280;DHT22;2663;53.588;10.010;2023-11-19T02:00:06;7.50;99.90
5280;DHT22;2663;53.588;10.010;2023-11-19T02:02:33;7.50;99.90
5280;DHT22;2663;53.588;10.010;2023-11-19T02:05:00;7.50;99.90
5280;DHT22;2663;53.588;10.010;2023-11-19T02:07:27;7.50;99.90
5280;DHT22;2663;53.588;10.010;2023-11-19T02:09:54;7.50;99.90
5280;DHT22;2663;53.588;10.010;2023-11-19T02:12:21;7.50;99.90
5280;DHT22;2663;53.588;10.010;2023-11-19T02:14:47;7.50;99.90
5280;DHT22;2663;53.588;10.010;2023-11-19T02:17:26;7.50;99.90
5280;DHT22;2663;53.588;10.010;2023-11-19T02:19:54;7.50;99.90
5280;DHT22;2663;53.588;10.010;2023-11-19T02:22:21;7.50;99.90
5280;DHT22;2663;53.588;10.010;2023-11-19T02:24:51;7.50;99.90
5280;DHT22;2663;53.588;10.010;2023-11-19T02:27:43;7.50;99.90
5280;DHT22;2663;53.588;10.010;2023-11-19T02:30:11;7.50;99.90
5280;DHT22;2663;53.588;10.010;2023-11-19T02:32:42;7.50;99.90
5280;DHT22;2663;53.588;10.010;2023-11-19T02:35:09;7.50;99.90
5280;DHT22;2663;53.588;10.010;2023-11-19T02:37:35;7.50;99.90
5280;DHT22;2663;53.588;10.010;2023-11-19T02:40:02;7.40;99.90
5280;DHT22;2663;53.588;10.010;2023-11-19T02:42:30;7.50;99.90
5280;DHT22;2663;53.588;10.010;2023-11-19T02:44:57;7.60;99.90
5280;DHT22;2663;53.588;10.010;2023-11-19T02:47:25;7.60;99.90
5280;DHT22;2663;53.588;10.010;2023-11-19T02:49:52;7.60;99.90
5280;DHT22;2663;53.588;10.010;2023-11-19T02:52:19;7.60;99.90
5280;DHT22;2663;53.588;10.010;2023-11-19T02:54:46;7.60;99.90
5280;DHT22;2663;53.588;10.010;2023-11-19T02:57:13;7.70;99.90
5280;DHT22;2663;53.588;10.010;2023-11-19T02:59:48;7.60;99.90
5280;DHT22;2663;53.588;10.010;2023-11-19T03:02:15;7.60;99.90
5280;DHT22;2663;53.588;10.010;2023-11-19T03:04:44;7.60;99.90
5280;DHT22;2663;53.588;10.010;2023-11-19T03:07:12;7.50;99.90
5280;DHT22;2663;53.588;10.010;2023-11-19T03:09:40;7.50;99.90
5280;DHT22;2663;53.588;10.010;2023-11-19T03:12:07;7.60;99.90
5280;DHT22;2663;53.588;10.010;2023-11-19T03:14:34;7.60;99.90
5280;DHT22;2663;53.588;10.010;2023-11-19T03:17:01;7.60;99.90
5280;DHT22;2663;53.588;10.010;2023-11-19T03:19:28;7.70;99.90
5280;DHT22;2663;53.588;10.010;2023-11-19T03:21:55;7.70;99.90
5280;DHT22;2663;53.588;10.010;2023-11-19T03:24:21;7.70;99.90
5280;DHT22;2663;53.588;10.010;2023-11-19T03:26:49;7.80;99.90
5280;DHT22;2663;53.588;10.010;2023-11-19T03:29:16;7.80;99.90
5280;DHT22;2663;53.588;10.010;2023-11-19T03:31:43;7.80;99.90
5280;DHT22;2663;53.588;10.010;2023-11-19T03:34:11;7.90;99.90
5280;DHT22;2663;53.588;10.010;2023-11-19T03:36:38;7.90;99.90
5280;DHT22;2663;53.588;10.010;2023-11-19T03:39:05;7.90;99.90
5280;DHT22;2663;53.588;10.010;2023-11-19T03:41:31;7.80;99.90
5280;DHT22;2663;53.588;10.010;2023-11-19T03:44:01;7.90;99.90
5280;DHT22;2663;53.588;10.010;2023-11-19T03:46:28;7.90;99.90
5280;DHT22;2663;53.588;10.010;2023-11-19T03:48:56;7.90;99.90
5280;DHT22;2663;53.588;10.010;2023-11-19T03:51:23;8.00;99.90
5280;DHT22;2663;53.588;10.010;2023-11-19T03:53:50;8.10;99.90
5280;DHT22;2663;53.588;10.010;2023-11-19T03:56:17;8.00;99.90
5280;DHT22;2663;53.588;10.010;2023-11-19T03:58:43;8.10;99.90
5280;DHT22;2663;53.588;10.010;2023-11-19T04:01:13;8.10;99.90
5280;DHT22;2663;53.588;10.010;2023-11-19T04:03:40;8.10;99.90
5280;DHT22;2663;53.588;10.010;2023-11-19T04:06:17;8.10;99.90
5280;DHT22;2663;53.588;10.010;2023-11-19T04:08:43;8.10;99.90
5280;DHT22;2663;53.588;10.010;2023-11-19T04:11:11;8.10;99.90
5280;DHT22;2663;53.588;10.010;2023-11-19T04:13:37;8.00;99.90
5280;DHT22;2663;53.588;10.010;2023-11-19T04:16:04;8.00;99.90
5280;DHT22;2663;53.588;10.010;2023-11-19T04:18:31;8.00;99.90
5280;DHT22;2663;53.588;10.010;2023-11-19T04:21:01;8.10;99.90
5280;DHT22;2663;53.588;10.010;2023-11-19T04:23:27;8.10;99.90
5280;DHT22;2663;53.588;10.010;2023-11-19T04:25:54;8.10;99.90
5280;DHT22;2663;53.588;10.010;2023-11-19T04:28:20;8.10;99.90
5280;DHT22;2663;53.588;10.010;2023-11-19T04:30:47;8.10;99.90
5280;DHT22;2663;53.588;10.010;2023-11-19T04:33:14;8.10;99.90
5280;DHT22;2663;53.588;10.010;2023-11-19T04:35:41;8.20;99.90
5280;DHT22;2663;53.588;10.010;2023-11-19T04:38:08;8.20;99.90
5280;DHT22;2663;53.588;10.010;2023-11-19T04:40:35;8.20;99.90
5280;DHT22;2663;53.588;10.010;2023-11-19T04:43:01;8.10;99.90
5280;DHT22;2663;53.588;10.010;2023-11-19T04:45:28;8.20;99.90
5280;DHT22;2663;53.588;10.010;2023-11-19T04:47:55;8.20;99.90
5280;DHT22;2663;53.588;10.010;2023-11-19T04:50:22;8.20;99.90
5280;DHT22;2663;53.588;10.010;2023-11-19T04:52:48;8.20;99.90
5280;DHT22;2663;53.588;10.010;2023-11-19T04:55:15;8.30;99.90
5280;DHT22;2663;53.588;10.010;2023-11-19T04:57:42;8.30;99.90
5280;DHT22;2663;53.588;10.010;2023-11-19T05:00:10;8.30;99.90
5280;DHT22;2663;53.588;10.010;2023-11-19T05:02:40;8.40;99.90
5280;DHT22;2663;53.588;10.010;2023-11-19T05:05:07;8.40;99.90
5280;DHT22;2663;53.588;10.010;2023-11-19T05:07:35;8.40;99.90
5280;DHT22;2663;53.588;10.010;2023-11-19T05:10:03;8.50;99.90
5280;DHT22;2663;53.588;10.010;2023-11-19T05:12:30;8.50;99.90
5280;DHT22;2663;53.588;10.010;2023-11-19T05:14:58;8.60;99.90
5280;DHT22;2663;53.588;10.010;2023-11-19T05:17:24;8.60;99.90
5280;DHT22;2663;53.588;10.010;2023-11-19T05:19:51;8.60;99.90
5280;DHT22;2663;53.588;10.010;2023-11-19T05:22:18;8.70;99.90
5280;DHT22;2663;53.588;10.010;2023-11-19T05:24:47;8.80;99.90
5280;DHT22;2663;53.588;10.010;2023-11-19T05:27:16;8.80;99.90
5280;DHT22;2663;53.588;10.010;2023-11-19T05:29:43;8.80;99.90
5280;DHT22;2663;53.588;10.010;2023-11-19T05:32:10;8.90;99.90
5280;DHT22;2663;53.588;10.010;2023-11-19T05:34:37;8.90;99.90
5280;DHT22;2663;53.588;10.010;2023-11-19T05:37:18;8.90;99.90
5280;DHT22;2663;53.588;10.010;2023-11-19T05:39:45;9.50;99.90
5280;DHT22;2663;53.588;10.010;2023-11-19T05:42:12;9.00;99.90
5280;DHT22;2663;53.588;10.010;2023-11-19T05:44:39;9.00;99.90
5280;DHT22;2663;53.588;10.010;2023-11-19T05:47:07;9.10;99.90
5280;DHT22;2663;53.588;10.010;2023-11-19T05:49:34;9.20;99.90
5280;DHT22;2663;53.588;10.010;2023-11-19T05:52:01;9.20;99.90
5280;DHT22;2663;53.588;10.010;2023-11-19T05:54:29;9.30;99.90
5280;DHT22;2663;53.588;10.010;2023-11-19T05:56:58;9.40;99.90
5280;DHT22;2663;53.588;10.010;2023-11-19T05:59:24;9.60;99.90
5280;DHT22;2663;53.588;10.010;2023-11-19T06:01:51;10.30;99.90
5280;DHT22;2663;53.588;10.010;2023-11-19T06:04:18;9.80;99.90
5280;DHT22;2663;53.588;10.010;2023-11-19T06:06:45;10.00;99.90
5280;DHT22;2663;53.588;10.010;2023-11-19T06:09:11;10.10;99.90
5280;DHT22;2663;53.588;10.010;2023-11-19T06:11:40;10.30;99.90
5280;DHT22;2663;53.588;10.010;2023-11-19T06:14:06;10.40;99.90
5280;DHT22;2663;53.588;10.010;2023-11-19T06:16:33;10.50;99.90
5280;DHT22;2663;53.588;10.010;2023-11-19T06:19:00;10.60;99.90
5280;DHT22;2663;53.588;10.010;2023-11-19T06:21:27;10.60;99.90
5280;DHT22;2663;53.588;10.010;2023-11-19T06:23:54;10.60;99.90
5280;DHT22;2663;53.588;10.010;2023-11-19T06:26:21;10.70;99.90
5280;DHT22;2663;53.588;10.010;2023-11-19T06:28:48;10.70;99.90
5280;DHT22;2663;53.588;10.010;2023-11-19T06:31:15;10.80;99.90
5280;DHT22;2663;53.588;10.010;2023-11-19T06:33:43;11.10;99.90
5280;DHT22;2663;53.588;10.010;2023-11-19T06:36:09;10.90;99.90
5280;DHT22;2663;53.588;10.010;2023-11-19T06:38:37;10.90;99.90
5280;DHT22;2663;53.588;10.010;2023-11-19T06:41:07;10.90;99.90
5280;DHT22;2663;53.588;10.010;2023-11-19T06:43:33;11.00;99.90
5280;DHT22;2663;53.588;10.010;2023-11-19T06:46:03;11.00;99.90
5280;DHT22;2663;53.588;10.010;2023-11-19T06:48:32;11.00;99.90
5280;DHT22;2663;53.588;10.010;2023-11-19T06:51:00;11.10;99.90
5280;DHT22;2663;53.588;10.010;2023-11-19T06:53:26;11.10;99.90
5280;DHT22;2663;53.588;10.010;2023-11-19T06:55:54;11.10;99.90
5280;DHT22;2663;53.588;10.010;2023-11-19T06:58:21;10.60;99.90
5280;DHT22;2663;53.588;10.010;2023-11-19T07:00:48;11.20;99.90
5280;DHT22;2663;53.588;10.010;2023-11-19T07:03:16;11.30;99.90
5280;DHT22;2663;53.588;10.010;2023-11-19T07:05:43;11.20;99.90
5280;DHT22;2663;53.588;10.010;2023-11-19T07:08:10;11.20;99.90
5280;DHT22;2663;53.588;10.010;2023-11-19T07:10:37;11.30;99.90
5280;DHT22;2663;53.588;10.010;2023-11-19T07:13:05;11.30;99.90
5280;DHT22;2663;53.588;10.010;2023-11-19T07:15:32;11.40;99.90
5280;DHT22;2663;53.588;10.010;2023-11-19T07:17:59;11.40;99.90
5280;DHT22;2663;53.588;10.010;2023-11-19T07:20:28;11.80;99.90
5280;DHT22;2663;53.588;10.010;2023-11-19T07:22:55;11.40;99.90
5280;DHT22;2663;53.588;10.010;2023-11-19T07:25:24;11.50;99.90
5280;DHT22;2663;53.588;10.010;2023-11-19T07:27:51;11.40;99.90
5280;DHT22;2663;53.588;10.010;2023-11-19T07:30:19;11.50;99.90
5280;DHT22;2663;53.588;10.010;2023-11-19T07:32:45;11.40;99.90
5280;DHT22;2663;53.588;10.010;2023-11-19T07:35:12;11.50;99.90
5280;DHT22;2663;53.588;10.010;2023-11-19T07:37:39;11.50;99.90
5280;DHT22;2663;53.588;10.010;2023-11-19T07:40:06;11.50;99.90
5280;DHT22;2663;53.588;10.010;2023-11-19T07:42:33;11.50;99.90
5280;DHT22;2663;53.588;10.010;2023-11-19T07:45:00;11.60;99.90
5280;DHT22;2663;53.588;10.010;2023-11-19T07:47:27;11.60;99.90
5280;DHT22;2663;53.588;10.010;2023-11-19T07:49:55;11.60;99.90
5280;DHT22;2663;53.588;10.010;2023-11-19T07:52:22;11.60;99.90
5280;DHT22;2663;53.588;10.010;2023-11-19T07:54:48;11.60;99.90
5280;DHT22;2663;53.588;10.010;2023-11-19T07:57:15;11.60;99.90
5280;DHT22;2663;53.588;10.010;2023-11-19T07:59:42;11.70;99.90
5280;DHT22;2663;53.588;10.010;2023-11-19T08:02:09;11.70;99.90
5280;DHT22;2663;53.588;10.010;2023-11-19T08:04:36;11.70;99.90
5280;DHT22;2663;53.588;10.010;2023-11-19T08:07:03;11.70;99.90
5280;DHT22;2663;53.588;10.010;2023-11-19T08:09:30;11.80;99.90
5280;DHT22;2663;53.588;10.010;2023-11-19T08:11:57;11.80;99.90
5280;DHT22;2663;53.588;10.010;2023-11-19T08:14:24;11.80;99.90
5280;DHT22;2663;53.588;10.010;2023-11-19T08:16:51;11.80;99.90
5280;DHT22;2663;53.588;10.010;2023-11-19T08:19:17;11.80;99.90
5280;DHT22;2663;53.588;10.010;2023-11-19T08:21:44;11.80;99.90
5280;DHT22;2663;53.588;10.010;2023-11-19T08:24:11;11.80;99.90
5280;DHT22;2663;53.588;10.010;2023-11-19T08:26:38;11.80;99.90
5280;DHT22;2663;53.588;10.010;2023-11-19T08:29:05;11.80;99.90
5280;DHT22;2663;53.588;10.010;2023-11-19T08:31:32;11.90;99.90
5280;DHT22;2663;53.588;10.010;2023-11-19T08:33:59;11.90;99.90
5280;DHT22;2663;53.588;10.010;2023-11-19T08:36:25;11.60;99.90
5280;DHT22;2663;53.588;10.010;2023-11-19T08:38:52;12.30;99.90
5280;DHT22;2663;53.588;10.010;2023-11-19T08:41:19;12.20;99.90
5280;DHT22;2663;53.588;10.010;2023-11-19T08:43:46;12.10;99.90
5280;DHT22;2663;53.588;10.010;2023-11-19T08:46:13;12.50;99.90
5280;DHT22;2663;53.588;10.010;2023-11-19T08:48:40;12.80;99.90
5280;DHT22;2663;53.588;10.010;2023-11-19T08:51:07;12.60;99.90
5280;DHT22;2663;53.588;10.010;2023-11-19T08:53:34;12.40;99.90
5280;DHT22;2663;53.588;10.010;2023-11-19T08:56:01;12.20;99.90
5280;DHT22;2663;53.588;10.010;2023-11-19T08:58:29;12.20;99.90
5280;DHT22;2663;53.588;10.010;2023-11-19T09:00:57;12.10;99.90
5280;DHT22;2663;53.588;10.010;2023-11-19T09:03:24;12.10;99.90
5280;DHT22;2663;53.588;10.010;2023-11-19T09:05:57;12.10;99.90
5280;DHT22;2663;53.588;10.010;2023-11-19T09:08:23;12.10;99.90
5280;DHT22;2663;53.588;10.010;2023-11-19T09:10:50;12.10;99.90
5280;DHT22;2663;53.588;10.010;2023-11-19T09:13:17;12.10;99.90
5280;DHT22;2663;53.588;10.010;2023-11-19T09:15:44;12.00;99.90
5280;DHT22;2663;53.588;10.010;2023-11-19T09:18:11;12.00;99.90
5280;DHT22;2663;53.588;10.010;2023-11-19T09:20:38;12.10;99.90
5280;DHT22;2663;53.588;10.010;2023-11-19T09:23:06;12.10;99.90
5280;DHT22;2663;53.588;10.010;2023-11-19T09:25:33;12.10;99.90
5280;DHT22;2663;53.588;10.010;2023-11-19T09:28:03;12.10;99.90
5280;DHT22;2663;53.588;10.010;2023-11-19T09:30:30;12.10;99.90
5280;DHT22;2663;53.588;10.010;2023-11-19T09:32:57;12.20;99.90
5280;DHT22;2663;53.588;10.010;2023-11-19T09:35:24;12.20;99.90
5280;DHT22;2663;53.588;10.010;2023-11-19T09:37:50;12.20;99.90
5280;DHT22;2663;53.588;10.010;2023-11-19T09:40:18;12.20;99.90
5280;DHT22;2663;53.588;10.010;2023-11-19T09:42:45;12.30;99.90
5280;DHT22;2663;53.588;10.010;2023-11-19T09:45:16;12.30;99.90
5280;DHT22;2663;53.588;10.010;2023-11-19T09:47:45;12.30;99.90
5280;DHT22;2663;53.588;10.010;2023-11-19T09:50:16;12.30;99.90
5280;DHT22;2663;53.588;10.010;2023-11-19T09:52:44;12.40;99.90
5280;DHT22;2663;53.588;10.010;2023-11-19T09:55:10;12.40;99.90
5280;DHT22;2663;53.588;10.010;2023-11-19T09:57:41;12.40;99.90
5280;DHT22;2663;53.588;10.010;2023-11-19T10:00:08;12.30;99.90
5280;DHT22;2663;53.588;10.010;2023-11-19T10:02:38;12.40;99.90
5280;DHT22;2663;53.588;10.010;2023-11-19T10:05:07;12.50;99.90
5280;DHT22;2663;53.588;10.010;2023-11-19T10:07:34;12.50;99.90
5280;DHT22;2663;53.588;10.010;2023-11-19T10:10:01;12.50;99.90
5280;DHT22;2663;53.588;10.010;2023-11-19T10:12:30;12.40;99.90
5280;DHT22;2663;53.588;10.010;2023-11-19T10:14:58;12.50;99.90
5280;DHT22;2663;53.588;10.010;2023-11-19T10:17:29;12.30;99.90
5280;DHT22;2663;53.588;10.010;2023-11-19T10:19:58;12.30;99.90
5280;DHT22;2663;53.588;10.010;2023-11-19T10:22:27;12.20;99.90
5280;DHT22;2663;53.588;10.010;2023-11-19T10:24:54;12.20;99.90
5280;DHT22;2663;53.588;10.010;2023-11-19T10:27:24;12.20;99.90
5280;DHT22;2663;53.588;10.010;2023-11-19T10:29:52;12.10;99.90
5280;DHT22;2663;53.588;10.010;2023-11-19T10:32:19;12.90;99.90
5280;DHT22;2663;53.588;10.010;2023-11-19T10:35:04;12.10;99.90
5280;DHT22;2663;53.588;10.010;2023-11-19T10:37:31;12.00;99.90
5280;DHT22;2663;53.588;10.010;2023-11-19T10:39:59;12.00;99.90
5280;DHT22;2663;53.588;10.010;2023-11-19T10:42:26;12.00;99.90
5280;DHT22;2663;53.588;10.010;2023-11-19T10:44:53;12.10;99.90
5280;DHT22;2663;53.588;10.010;2023-11-19T10:47:20;12.10;99.90
5280;DHT22;2663;53.588;10.010;2023-11-19T10:50:04;12.10;99.90
5280;DHT22;2663;53.588;10.010;2023-11-19T10:52:33;12.00;99.90
5280;DHT22;2663;53.588;10.010;2023-11-19T10:55:00;12.00;99.90
5280;DHT22;2663;53.588;10.010;2023-11-19T10:57:35;12.00;99.90
5280;DHT22;2663;53.588;10.010;2023-11-19T11:00:03;12.00;99.90
5280;DHT22;2663;53.588;10.010;2023-11-19T11:02:41;12.10;99.90
5280;DHT22;2663;53.588;10.010;2023-11-19T11:05:09;12.00;99.90
5280;DHT22;2663;53.588;10.010;2023-11-19T11:07:40;12.00;99.90
5280;DHT22;2663;53.588;10.010;2023-11-19T11:10:08;12.10;99.90
5280;DHT22;2663;53.588;10.010;2023-11-19T11:12:37;12.10;99.90
5280;DHT22;2663;53.588;10.010;2023-11-19T11:15:11;12.10;99.90
5280;DHT22;2663;53.588;10.010;2023-11-19T11:17:41;12.10;99.90
5280;DHT22;2663;53.588;10.010;2023-11-19T11:20:09;12.10;99.90
5280;DHT22;2663;53.588;10.010;2023-11-19T11:23:31;12.10;99.90
5280;DHT22;2663;53.588;10.010;2023-11-19T11:28:52;12.20;99.90
5280;DHT22;2663;53.588;10.010;2023-11-19T11:32:05;12.20;99.90
5280;DHT22;2663;53.588;10.010;2023-11-19T11:34:58;12.20;99.90
5280;DHT22;2663;53.588;10.010;2023-11-19T11:37:45;12.20;99.90
5280;DHT22;2663;53.588;10.010;2023-11-19T11:40:15;12.10;99.90
5280;DHT22;2663;53.588;10.010;2023-11-19T11:42:42;12.10;99.90
5280;DHT22;2663;53.588;10.010;2023-11-19T11:45:11;12.10;99.90
5280;DHT22;2663;53.588;10.010;2023-11-19T11:50:16;12.10;99.90
5280;DHT22;2663;53.588;10.010;2023-11-19T11:58:19;12.20;99.90
5280;DHT22;2663;53.588;10.010;2023-11-19T12:00:48;12.20;99.90
5280;DHT22;2663;53.588;10.010;2023-11-19T12:03:16;12.20;99.90
5280;DHT22;2663;53.588;10.010;2023-11-19T12:05:46;12.20;99.90
5280;DHT22;2663;53.588;10.010;2023-11-19T12:08:15;12.30;99.90
5280;DHT22;2663;53.588;10.010;2023-11-19T12:10:50;12.40;99.90
5280;DHT22;2663;53.588;10.010;2023-11-19T12:13:20;12.40;99.90
5280;DHT22;2663;53.588;10.010;2023-11-19T12:18:27;12.40;99.90
5280;DHT22;2663;53.588;10.010;2023-11-19T12:20:54;12.40;99.90
5280;DHT22;2663;53.588;10.010;2023-11-19T12:23:22;12.40;99.90
5280;DHT22;2663;53.588;10.010;2023-11-19T12:25:49;12.50;99.90
5280;DHT22;2663;53.588;10.010;2023-11-19T12:28:16;12.50;99.90
5280;DHT22;2663;53.588;10.010;2023-11-19T12:30:44;12.50;99.90
5280;DHT22;2663;53.588;10.010;2023-11-19T12:33:12;12.50;99.90
5280;DHT22;2663;53.588;10.010;2023-11-19T12:38:07;12.50;99.90
5280;DHT22;2663;53.588;10.010;2023-11-19T12:40:33;12.40;99.90
5280;DHT22;2663;53.588;10.010;2023-11-19T12:43:00;12.30;99.90
5280;DHT22;2663;53.588;10.010;2023-11-19T12:45:36;12.30;99.90
5280;DHT22;2663;53.588;10.010;2023-11-19T12:48:07;12.20;99.90
5280;DHT22;2663;53.588;10.010;2023-11-19T12:50:54;12.20;99.90
5280;DHT22;2663;53.588;10.010;2023-11-19T12:53:22;12.10;99.90
5280;DHT22;2663;53.588;10.010;2023-11-19T12:55:53;12.20;99.90
5280;DHT22;2663;53.588;10.010;2023-11-19T12:58:33;12.20;99.90
5280;DHT22;2663;53.588;10.010;2023-11-19T13:01:02;12.20;99.90
5280;DHT22;2663;53.588;10.010;2023-11-19T13:03:31;12.30;99.90
5280;DHT22;2663;53.588;10.010;2023-11-19T13:06:09;12.40;99.90
5280;DHT22;2663;53.588;10.010;2023-11-19T13:08:49;12.40;99.90
5280;DHT22;2663;53.588;10.010;2023-11-19T13:11:35;12.40;99.90
5280;DHT22;2663;53.588;10.010;2023-11-19T13:14:04;12.40;99.90
5280;DHT22;2663;53.588;10.010;2023-11-19T13:16:31;12.50;99.90
5280;DHT22;2663;53.588;10.010;2023-11-19T13:18:59;12.40;99.90
5280;DHT22;2663;53.588;10.010;2023-11-19T13:21:26;12.40;99.90
5280;DHT22;2663;53.588;10.010;2023-11-19T13:23:53;12.50;99.90
5280;DHT22;2663;53.588;10.010;2023-11-19T13:26:20;12.50;99.90
5280;DHT22;2663;53.588;10.010;2023-11-19T13:28:47;12.50;99.90
5280;DHT22;2663;53.588;10.010;2023-11-19T13:31:14;12.40;99.90
5280;DHT22;2663;53.588;10.010;2023-11-19T13:33:41;12.40;99.90
5280;DHT22;2663;53.588;10.010;2023-11-19T13:36:09;12.40;99.90
5280;DHT22;2663;53.588;10.010;2023-11-19T13:38:39;12.40;99.90
5280;DHT22;2663;53.588;10.010;2023-11-19T13:41:10;12.40;99.90
5280;DHT22;2663;53.588;10.010;2023-11-19T13:43:39;12.40;99.90
5280;DHT22;2663;53.588;10.010;2023-11-19T13:46:06;12.40;99.90
5280;DHT22;2663;53.588;10.010;2023-11-19T13:48:33;12.40;99.90
5280;DHT22;2663;53.588;10.010;2023-11-19T13:50:59;12.40;99.90
5280;DHT22;2663;53.588;10.010;2023-11-19T13:53:26;12.40;99.90
5280;DHT22;2663;53.588;10.010;2023-11-19T13:55:53;12.40;99.90
5280;DHT22;2663;53.588;10.010;2023-11-19T13:58:20;12.40;99.90
5280;DHT22;2663;53.588;10.010;2023-11-19T14:00:46;12.40;99.90
5280;DHT22;2663;53.588;10.010;2023-11-19T14:03:13;12.30;99.90
5280;DHT22;2663;53.588;10.010;2023-11-19T14:05:40;12.40;99.90
5280;DHT22;2663;53.588;10.010;2023-11-19T14:08:08;12.40;99.90
5280;DHT22;2663;53.588;10.010;2023-11-19T14:10:51;12.40;99.90
5280;DHT22;2663;53.588;10.010;2023-11-19T14:13:18;12.40;99.90
5280;DHT22;2663;53.588;10.010;2023-11-19T14:15:44;12.50;99.90
5280;DHT22;2663;53.588;10.010;2023-11-19T14:18:15;12.50;99.90
5280;DHT22;2663;53.588;10.010;2023-11-19T14:20:42;12.50;99.90
5280;DHT22;2663;53.588;10.010;2023-11-19T14:23:09;12.50;99.90
5280;DHT22;2663;53.588;10.010;2023-11-19T14:25:36;12.50;99.90
5280;DHT22;2663;53.588;10.010;2023-11-19T14:28:02;12.50;99.90
5280;DHT22;2663;53.588;10.010;2023-11-19T14:30:32;12.40;99.90
5280;DHT22;2663;53.588;10.010;2023-11-19T14:32:58;12.40;99.90
5280;DHT22;2663;53.588;10.010;2023-11-19T14:35:25;12.30;99.90
5280;DHT22;2663;53.588;10.010;2023-11-19T14:37:52;12.20;99.90
5280;DHT22;2663;53.588;10.010;2023-11-19T14:40:19;12.10;99.90
5280;DHT22;2663;53.588;10.010;2023-11-19T14:42:46;12.10;99.90
5280;DHT22;2663;53.588;10.010;2023-11-19T14:45:13;12.10;99.90
5280;DHT22;2663;53.588;10.010;2023-11-19T14:47:40;12.00;99.90
5280;DHT22;2663;53.588;10.010;2023-11-19T14:50:07;12.00;99.90
5280;DHT22;2663;53.588;10.010;2023-11-19T14:52:35;12.10;99.90
5280;DHT22;2663;53.588;10.010;2023-11-19T14:55:03;12.10;99.90
5280;DHT22;2663;53.588;10.010;2023-11-19T14:57:30;12.10;99.90
5280;DHT22;2663;53.588;10.010;2023-11-19T14:59:58;12.20;99.90
5280;DHT22;2663;53.588;10.010;2023-11-19T15:02:25;11.20;99.90
5280;DHT22;2663;53.588;10.010;2023-11-19T15:04:51;11.80;99.90
5280;DHT22;2663;53.588;10.010;2023-11-19T15:07:18;11.60;99.90
5280;DHT22;2663;53.588;10.010;2023-11-19T15:09:45;11.40;99.90
5280;DHT22;2663;53.588;10.010;2023-11-19T15:12:12;11.30;99.90
5280;DHT22;2663;53.588;10.010;2023-11-19T15:14:39;11.10;99.90
5280;DHT22;2663;53.588;10.010;2023-11-19T15:17:05;11.10;99.90
5280;DHT22;2663;53.588;10.010;2023-11-19T15:19:33;11.00;99.90
5280;DHT22;2663;53.588;10.010;2023-11-19T15:22:01;11.00;99.90
5280;DHT22;2663;53.588;10.010;2023-11-19T15:24:31;11.40;99.90
5280;DHT22;2663;53.588;10.010;2023-11-19T15:26:58;11.70;99.90
5280;DHT22;2663;53.588;10.010;2023-11-19T15:29:28;11.40;99.90
5280;DHT22;2663;53.588;10.010;2023-11-19T15:31:55;11.50;99.90
5280;DHT22;2663;53.588;10.010;2023-11-19T15:34:22;11.10;99.90
5280;DHT22;2663;53.588;10.010;2023-11-19T15:36:48;11.10;99.90
5280;DHT22;2663;53.588;10.010;2023-11-19T15:39:15;11.10;99.90
5280;DHT22;2663;53.588;10.010;2023-11-19T15:41:42;11.10;99.90
5280;DHT22;2663;53.588;10.010;2023-11-19T15:44:09;11.10;99.90
5280;DHT22;2663;53.588;10.010;2023-11-19T15:46:36;11.10;99.90
5280;DHT22;2663;53.588;10.010;2023-11-19T15:49:03;11.10;99.90
5280;DHT22;2663;53.588;10.010;2023-11-19T15:51:29;11.10;99.90
5280;DHT22;2663;53.588;10.010;2023-11-19T15:53:56;11.20;99.90
5280;DHT22;2663;53.588;10.010;2023-11-19T15:56:23;11.20;99.90
5280;DHT22;2663;53.588;10.010;2023-11-19T15:58:49;11.20;99.90
5280;DHT22;2663;53.588;10.010;2023-11-19T16:01:17;11.20;99.90
5280;DHT22;2663;53.588;10.010;2023-11-19T16:03:44;11.30;99.90
5280;DHT22;2663;53.588;10.010;2023-11-19T16:06:14;11.30;99.90
5280;DHT22;2663;53.588;10.010;2023-11-19T16:08:41;11.30;99.90
5280;DHT22;2663;53.588;10.010;2023-11-19T16:11:09;11.30;99.90
5280;DHT22;2663;53.588;10.010;2023-11-19T16:13:36;11.30;99.90
5280;DHT22;2663;53.588;10.010;2023-11-19T16:16:03;11.30;99.90